sensor_id;sensor_type;location;lat;lon;timestamp;temperature;humidity
9371;DHT22;4725;48.384;8.984;2024-02-28T00:00:56;5.70;99.90
9371;DHT22;4725;48.384;8.984;2024-02-28T00:08:18;5.60;99.90
9371;DHT22;4725;48.384;8.984;2024-02-28T00:13:14;5.40;99.90
9371;DHT22;4725;48.384;8.984;2024-02-28T00:25:32;4.80;99.90
9371;DHT22;4725;48.384;8.984;2024-02-28T00:30:26;4.60;99.90
9371;DHT22;4725;48.384;8.984;2024-02-28T00:37:48;4.20;99.90
9371;DHT22;4725;48.384;8.984;2024-02-28T00:42:43;3.90;99.90
9371;DHT22;4725;48.384;8.984;2024-02-28T00:52:33;3.70;99.90
9371;DHT22;4725;48.384;8.984;2024-02-28T00:59:55;3.60;99.90
9371;DHT22;4725;48.384;8.984;2024-02-28T01:04:49;3.70;99.90
9371;DHT22;4725;48.384;8.984;2024-02-28T01:09:43;3.80;99.90
9371;DHT22;4725;48.384;8.984;2024-02-28T01:12:10;3.90;99.90
9371;DHT22;4725;48.384;8.984;2024-02-28T01:17:06;4.20;99.90
9371;DHT22;4725;48.384;8.984;2024-02-28T01:31:49;4.40;99.90
9371;DHT22;4725;48.384;8.984;2024-02-28T01:34:17;4.40;99.90
9371;DHT22;4725;48.384;8.984;2024-02-28T01:36:44;4.40;99.90
9371;DHT22;4725;48.384;8.984;2024-02-28T01:49:00;4.50;99.90
9371;DHT22;4725;48.384;8.984;2024-02-28T01:58:52;4.50;99.90
9371;DHT22;4725;48.384;8.984;2024-02-28T02:08:43;4.50;99.90
9371;DHT22;4725;48.384;8.984;2024-02-28T02:11:11;4.60;99.90
9371;DHT22;4725;48.384;8.984;2024-02-28T02:13:47;4.60;99.90
9371;DHT22;4725;48.384;8.984;2024-02-28T02:18:42;4.70;99.90
9371;DHT22;4725;48.384;8.984;2024-02-28T02:21:11;4.70;99.90
9371;DHT22;4725;48.384;8.984;2024-02-28T02:23:40;4.60;99.90
9371;DHT22;4725;48.384;8.984;2024-02-28T02:28:35;4.50;99.90
9371;DHT22;4725;48.384;8.984;2024-02-28T02:38:23;4.50;99.90
9371;DHT22;4725;48.384;8.984;2024-02-28T02:40:52;4.50;99.90
9371;DHT22;4725;48.384;8.984;2024-02-28T02:53:10;4.40;99.90
9371;DHT22;4725;48.384;8.984;2024-02-28T02:58:06;4.50;99.90
9371;DHT22;4725;48.384;8.984;2024-02-28T03:00:33;4.50;99.90
9371;DHT22;4725;48.384;8.984;2024-02-28T03:15:16;4.70;99.90
9371;DHT22;4725;48.384;8.984;2024-02-28T03:17:42;4.80;99.90
9371;DHT22;4725;48.384;8.984;2024-02-28T03:20:10;4.80;99.90
9371;DHT22;4725;48.384;8.984;2024-02-28T03:22:38;4.80;99.90
9371;DHT22;4725;48.384;8.984;2024-02-28T03:25:06;4.80;99.90
9371;DHT22;4725;48.384;8.984;2024-02-28T03:27:33;4.90;99.90
9371;DHT22;4725;48.384;8.984;2024-02-28T03:32:30;4.90;99.90
9371;DHT22;4725;48.384;8.984;2024-02-28T03:34:57;4.90;99.90
9371;DHT22;4725;48.384;8.984;2024-02-28T03:42:17;4.90;99.90
9371;DHT22;4725;48.384;8.984;2024-02-28T03:47:11;4.80;99.90
9371;DHT22;4725;48.384;8.984;2024-02-28T03:49:39;4.80;99.90
9371;DHT22;4725;48.384;8.984;2024-02-28T03:54:33;4.80;99.90
9371;DHT22;4725;48.384;8.984;2024-02-28T04:06:50;4.80;99.90
9371;DHT22;4725;48.384;8.984;2024-02-28T04:11:46;4.80;99.90
9371;DHT22;4725;48.384;8.984;2024-02-28T04:16:41;4.80;99.90
9371;DHT22;4725;48.384;8.984;2024-02-28T04:26:32;4.80;99.90
9371;DHT22;4725;48.384;8.984;2024-02-28T04:28:59;4.80;99.90
9371;DHT22;4725;48.384;8.984;2024-02-28T04:36:22;4.80;99.90
9371;DHT22;4725;48.384;8.984;2024-02-28T04:41:18;4.80;99.90
9371;DHT22;4725;48.384;8.984;2024-02-28T04:43:44;4.80;99.90
9371;DHT22;4725;48.384;8.984;2024-02-28T04:46:11;4.80;99.90
9371;DHT22;4725;48.384;8.984;2024-02-28T04:48:38;4.80;99.90
9371;DHT22;4725;48.384;8.984;2024-02-28T04:51:05;4.80;99.90
9371;DHT22;4725;48.384;8.984;2024-02-28T04:58:28;4.90;99.90
9371;DHT22;4725;48.384;8.984;2024-02-28T05:00:55;4.80;99.90
9371;DHT22;4725;48.384;8.984;2024-02-28T05:03:22;4.90;99.90
9371;DHT22;4725;48.384;8.984;2024-02-28T05:05:50;4.90;99.90
9371;DHT22;4725;48.384;8.984;2024-02-28T05:15:40;4.90;99.90
9371;DHT22;4725;48.384;8.984;2024-02-28T05:18:06;4.90;99.90
9371;DHT22;4725;48.384;8.984;2024-02-28T05:23:01;4.90;99.90
9371;DHT22;4725;48.384;8.984;2024-02-28T05:25:27;4.90;99.90
9371;DHT22;4725;48.384;8.984;2024-02-28T05:30:21;4.80;99.90
9371;DHT22;4725;48.384;8.984;2024-02-28T05:32:50;4.90;99.90
9371;DHT22;4725;48.384;8.984;2024-02-28T05:37:44;4.80;99.90
9371;DHT22;4725;48.384;8.984;2024-02-28T05:40:12;4.80;99.90
9371;DHT22;4725;48.384;8.984;2024-02-28T05:42:39;4.80;99.90
9371;DHT22;4725;48.384;8.984;2024-02-28T05:45:08;4.80;99.90
9371;DHT22;4725;48.384;8.984;2024-02-28T05:47:36;4.80;99.90
9371;DHT22;4725;48.384;8.984;2024-02-28T05:50:05;4.80;99.90
9371;DHT22;4725;48.384;8.984;2024-02-28T05:52:31;4.80;99.90
9371;DHT22;4725;48.384;8.984;2024-02-28T05:54:58;4.70;99.90
9371;DHT22;4725;48.384;8.984;2024-02-28T05:57:26;4.80;99.90
9371;DHT22;4725;48.384;8.984;2024-02-28T05:59:52;4.80;99.90
9371;DHT22;4725;48.384;8.984;2024-02-28T06:02:19;4.80;99.90
9371;DHT22;4725;48.384;8.984;2024-02-28T06:04:46;4.80;99.90
9371;DHT22;4725;48.384;8.984;2024-02-28T06:07:15;4.80;99.90
9371;DHT22;4725;48.384;8.984;2024-02-28T06:09:41;4.70;99.90
9371;DHT22;4725;48.384;8.984;2024-02-28T06:12:08;4.70;99.90
9371;DHT22;4725;48.384;8.984;2024-02-28T06:14:35;4.70;99.90
9371;DHT22;4725;48.384;8.984;2024-02-28T06:17:03;4.80;99.90
9371;DHT22;4725;48.384;8.984;2024-02-28T06:19:30;4.80;99.90
9371;DHT22;4725;48.384;8.984;2024-02-28T06:21:56;4.80;99.90
9371;DHT22;4725;48.384;8.984;2024-02-28T06:24:25;4.80;99.90
9371;DHT22;4725;48.384;8.984;2024-02-28T06:29:19;4.80;99.90
9371;DHT22;4725;48.384;8.984;2024-02-28T06:31:50;4.80;99.90
9371;DHT22;4725;48.384;8.984;2024-02-28T06:34:17;4.90;99.90
9371;DHT22;4725;48.384;8.984;2024-02-28T06:36:44;4.80;99.90
9371;DHT22;4725;48.384;8.984;2024-02-28T06:39:11;4.80;99.90
9371;DHT22;4725;48.384;8.984;2024-02-28T06:41:39;4.80;99.90
9371;DHT22;4725;48.384;8.984;2024-02-28T06:56:23;4.80;99.90
9371;DHT22;4725;48.384;8.984;2024-02-28T07:01:18;4.80;99.90
9371;DHT22;4725;48.384;8.984;2024-02-28T07:03:45;4.70;99.90
9371;DHT22;4725;48.384;8.984;2024-02-28T07:06:12;4.80;99.90
9371;DHT22;4725;48.384;8.984;2024-02-28T07:08:39;4.80;99.90
9371;DHT22;4725;48.384;8.984;2024-02-28T07:11:13;4.70;99.90
9371;DHT22;4725;48.384;8.984;2024-02-28T07:16:08;4.70;99.90
9371;DHT22;4725;48.384;8.984;2024-02-28T07:18:35;4.80;99.90
9371;DHT22;4725;48.384;8.984;2024-02-28T07:21:02;4.70;99.90
9371;DHT22;4725;48.384;8.984;2024-02-28T07:23:29;4.70;99.90
9371;DHT22;4725;48.384;8.984;2024-02-28T07:25:56;4.80;99.90
9371;DHT22;4725;48.384;8.984;2024-02-28T07:28:23;4.80;99.90
9371;DHT22;4725;48.384;8.984;2024-02-28T07:30:49;4.90;99.90
9371;DHT22;4725;48.384;8.984;2024-02-28T07:33:18;4.80;99.90
9371;DHT22;4725;48.384;8.984;2024-02-28T07:35:45;4.90;99.90
9371;DHT22;4725;48.384;8.984;2024-02-28T07:40:39;4.90;99.90
9371;DHT22;4725;48.384;8.984;2024-02-28T07:43:06;4.90;99.90
9371;DHT22;4725;48.384;8.984;2024-02-28T07:45:33;5.00;99.90
9371;DHT22;4725;48.384;8.984;2024-02-28T07:48:00;5.00;99.90
9371;DHT22;4725;48.384;8.984;2024-02-28T07:50:29;5.10;99.90
9371;DHT22;4725;48.384;8.984;2024-02-28T07:52:55;5.00;99.90
9371;DHT22;4725;48.384;8.984;2024-02-28T07:55:22;5.00;99.90
9371;DHT22;4725;48.384;8.984;2024-02-28T07:57:51;5.10;99.90
9371;DHT22;4725;48.384;8.984;2024-02-28T08:02:46;5.30;99.90
9371;DHT22;4725;48.384;8.984;2024-02-28T08:05:13;5.30;99.90
9371;DHT22;4725;48.384;8.984;2024-02-28T08:07:41;5.40;99.90
9371;DHT22;4725;48.384;8.984;2024-02-28T08:10:09;5.50;99.90
9371;DHT22;4725;48.384;8.984;2024-02-28T08:12:37;5.70;99.90
9371;DHT22;4725;48.384;8.984;2024-02-28T08:15:04;5.70;99.90
9371;DHT22;4725;48.384;8.984;2024-02-28T08:17:32;5.70;99.90
9371;DHT22;4725;48.384;8.984;2024-02-28T08:19:59;5.80;99.90
9371;DHT22;4725;48.384;8.984;2024-02-28T08:22:26;5.80;99.90
9371;DHT22;4725;48.384;8.984;2024-02-28T08:24:54;5.80;99.90
9371;DHT22;4725;48.384;8.984;2024-02-28T08:27:21;5.80;99.90
9371;DHT22;4725;48.384;8.984;2024-02-28T08:29:49;5.70;99.90
9371;DHT22;4725;48.384;8.984;2024-02-28T08:32:16;5.70;99.90
9371;DHT22;4725;48.384;8.984;2024-02-28T08:37:11;5.70;99.90
9371;DHT22;4725;48.384;8.984;2024-02-28T08:39:38;5.80;99.90
9371;DHT22;4725;48.384;8.984;2024-02-28T08:42:07;5.80;99.90
9371;DHT22;4725;48.384;8.984;2024-02-28T08:44:34;5.80;99.90
9371;DHT22;4725;48.384;8.984;2024-02-28T08:47:00;5.70;99.90
9371;DHT22;4725;48.384;8.984;2024-02-28T08:51:56;5.70;99.90
9371;DHT22;4725;48.384;8.984;2024-02-28T08:56:51;8.70;99.90
9371;DHT22;4725;48.384;8.984;2024-02-28T08:59:19;5.90;99.90
9371;DHT22;4725;48.384;8.984;2024-02-28T09:01:47;5.90;99.90
9371;DHT22;4725;48.384;8.984;2024-02-28T09:04:14;6.00;99.90
9371;DHT22;4725;48.384;8.984;2024-02-28T09:09:08;6.10;99.90
9371;DHT22;4725;48.384;8.984;2024-02-28T09:11:35;6.00;99.90
9371;DHT22;4725;48.384;8.984;2024-02-28T09:14:02;6.00;99.90
9371;DHT22;4725;48.384;8.984;2024-02-28T09:16:30;6.10;99.90
9371;DHT22;4725;48.384;8.984;2024-02-28T09:18:57;6.20;99.90
9371;DHT22;4725;48.384;8.984;2024-02-28T09:21:24;6.20;99.90
9371;DHT22;4725;48.384;8.984;2024-02-28T09:23:51;6.10;99.90
9371;DHT22;4725;48.384;8.984;2024-02-28T09:26:18;6.00;99.90
9371;DHT22;4725;48.384;8.984;2024-02-28T09:28:45;6.00;99.90
9371;DHT22;4725;48.384;8.984;2024-02-28T09:31:11;6.00;99.90
9371;DHT22;4725;48.384;8.984;2024-02-28T09:33:42;6.00;99.90
9371;DHT22;4725;48.384;8.984;2024-02-28T09:36:10;6.00;99.90
9371;DHT22;4725;48.384;8.984;2024-02-28T09:38:37;6.00;99.90
9371;DHT22;4725;48.384;8.984;2024-02-28T09:41:04;6.10;99.90
9371;DHT22;4725;48.384;8.984;2024-02-28T09:43:32;6.00;99.90
9371;DHT22;4725;48.384;8.984;2024-02-28T09:46:04;6.10;99.90
9371;DHT22;4725;48.384;8.984;2024-02-28T09:48:31;6.20;99.90
9371;DHT22;4725;48.384;8.984;2024-02-28T09:50:59;6.10;99.90
9371;DHT22;4725;48.384;8.984;2024-02-28T09:53:26;6.10;99.90
9371;DHT22;4725;48.384;8.984;2024-02-28T09:55:53;6.40;99.90
9371;DHT22;4725;48.384;8.984;2024-02-28T09:58:21;6.40;99.90
9371;DHT22;4725;48.384;8.984;2024-02-28T10:00:49;6.30;99.90
9371;DHT22;4725;48.384;8.984;2024-02-28T10:03:17;6.30;99.90
9371;DHT22;4725;48.384;8.984;2024-02-28T10:05:45;8.30;99.90
9371;DHT22;4725;48.384;8.984;2024-02-28T10:08:13;6.30;99.90
9371;DHT22;4725;48.384;8.984;2024-02-28T10:10:45;6.30;99.90
9371;DHT22;4725;48.384;8.984;2024-02-28T10:13:12;6.40;99.90
9371;DHT22;4725;48.384;8.984;2024-02-28T10:15:39;6.50;99.90
9371;DHT22;4725;48.384;8.984;2024-02-28T10:18:06;6.50;99.90
9371;DHT22;4725;48.384;8.984;2024-02-28T10:20:34;6.50;99.90
9371;DHT22;4725;48.384;8.984;2024-02-28T10:23:03;5.30;99.90
9371;DHT22;4725;48.384;8.984;2024-02-28T10:25:32;6.40;99.90
9371;DHT22;4725;48.384;8.984;2024-02-28T10:28:00;6.30;99.90
9371;DHT22;4725;48.384;8.984;2024-02-28T10:30:27;6.40;99.90
9371;DHT22;4725;48.384;8.984;2024-02-28T10:35:21;7.10;99.90
9371;DHT22;4725;48.384;8.984;2024-02-28T10:37:51;6.70;99.90
9371;DHT22;4725;48.384;8.984;2024-02-28T10:40:20;6.60;99.90
9371;DHT22;4725;48.384;8.984;2024-02-28T10:42:49;6.80;99.90
9371;DHT22;4725;48.384;8.984;2024-02-28T10:45:17;6.80;99.90
9371;DHT22;4725;48.384;8.984;2024-02-28T10:47:45;6.50;99.90
9371;DHT22;4725;48.384;8.984;2024-02-28T10:50:13;6.60;99.90
9371;DHT22;4725;48.384;8.984;2024-02-28T10:52:44;6.80;99.90
9371;DHT22;4725;48.384;8.984;2024-02-28T10:55:13;7.00;99.90
9371;DHT22;4725;48.384;8.984;2024-02-28T10:57:44;7.90;99.90
9371;DHT22;4725;48.384;8.984;2024-02-28T11:00:15;6.80;99.90
9371;DHT22;4725;48.384;8.984;2024-02-28T11:02:43;6.90;99.90
9371;DHT22;4725;48.384;8.984;2024-02-28T11:05:09;7.00;99.90
9371;DHT22;4725;48.384;8.984;2024-02-28T11:07:40;7.10;99.90
9371;DHT22;4725;48.384;8.984;2024-02-28T11:10:08;7.10;99.90
9371;DHT22;4725;48.384;8.984;2024-02-28T11:12:36;7.20;99.90
9371;DHT22;4725;48.384;8.984;2024-02-28T11:15:04;7.00;99.90
9371;DHT22;4725;48.384;8.984;2024-02-28T11:17:33;7.10;99.90
9371;DHT22;4725;48.384;8.984;2024-02-28T11:20:00;7.10;99.90
9371;DHT22;4725;48.384;8.984;2024-02-28T11:22:37;7.40;99.90
9371;DHT22;4725;48.384;8.984;2024-02-28T11:25:04;7.30;99.90
9371;DHT22;4725;48.384;8.984;2024-02-28T11:27:31;5.10;99.90
9371;DHT22;4725;48.384;8.984;2024-02-28T11:29:58;7.60;99.90
9371;DHT22;4725;48.384;8.984;2024-02-28T11:32:29;7.50;99.90
9371;DHT22;4725;48.384;8.984;2024-02-28T11:35:00;7.90;99.90
9371;DHT22;4725;48.384;8.984;2024-02-28T11:37:28;7.90;99.90
9371;DHT22;4725;48.384;8.984;2024-02-28T11:39:55;7.80;99.90
9371;DHT22;4725;48.384;8.984;2024-02-28T11:42:22;7.90;99.90
9371;DHT22;4725;48.384;8.984;2024-02-28T11:44:53;7.60;99.90
9371;DHT22;4725;48.384;8.984;2024-02-28T11:47:20;7.80;99.90
9371;DHT22;4725;48.384;8.984;2024-02-28T11:49:48;7.80;99.90
9371;DHT22;4725;48.384;8.984;2024-02-28T11:52:17;7.70;99.90
9371;DHT22;4725;48.384;8.984;2024-02-28T11:54:45;8.00;99.90
9371;DHT22;4725;48.384;8.984;2024-02-28T11:57:12;5.60;99.90
9371;DHT22;4725;48.384;8.984;2024-02-28T11:59:43;7.80;99.90
9371;DHT22;4725;48.384;8.984;2024-02-28T12:02:13;8.00;99.90
9371;DHT22;4725;48.384;8.984;2024-02-28T12:04:40;8.00;99.90
9371;DHT22;4725;48.384;8.984;2024-02-28T12:07:08;7.90;99.90
9371;DHT22;4725;48.384;8.984;2024-02-28T12:09:36;7.80;99.90
9371;DHT22;4725;48.384;8.984;2024-02-28T12:12:06;7.70;99.90
9371;DHT22;4725;48.384;8.984;2024-02-28T12:14:36;7.60;99.90
9371;DHT22;4725;48.384;8.984;2024-02-28T12:17:04;7.50;99.90
9371;DHT22;4725;48.384;8.984;2024-02-28T12:19:31;7.60;99.90
9371;DHT22;4725;48.384;8.984;2024-02-28T12:21:58;7.70;99.90
9371;DHT22;4725;48.384;8.984;2024-02-28T12:24:25;7.80;99.90
9371;DHT22;4725;48.384;8.984;2024-02-28T12:26:53;7.70;99.90
9371;DHT22;4725;48.384;8.984;2024-02-28T12:29:20;7.70;99.90
9371;DHT22;4725;48.384;8.984;2024-02-28T12:31:47;7.50;99.90
9371;DHT22;4725;48.384;8.984;2024-02-28T12:34:13;7.50;99.90
9371;DHT22;4725;48.384;8.984;2024-02-28T12:41:37;7.80;99.90
9371;DHT22;4725;48.384;8.984;2024-02-28T12:44:05;7.60;99.90
9371;DHT22;4725;48.384;8.984;2024-02-28T12:46:34;7.60;99.90
9371;DHT22;4725;48.384;8.984;2024-02-28T12:51:39;7.70;99.90
9371;DHT22;4725;48.384;8.984;2024-02-28T12:54:06;7.60;99.90
9371;DHT22;4725;48.384;8.984;2024-02-28T12:56:34;7.60;99.90
9371;DHT22;4725;48.384;8.984;2024-02-28T12:59:01;7.60;99.90
9371;DHT22;4725;48.384;8.984;2024-02-28T13:01:29;7.50;99.90
9371;DHT22;4725;48.384;8.984;2024-02-28T13:03:57;7.70;99.90
9371;DHT22;4725;48.384;8.984;2024-02-28T13:06:24;7.60;99.90
9371;DHT22;4725;48.384;8.984;2024-02-28T13:08:51;7.50;99.90
9371;DHT22;4725;48.384;8.984;2024-02-28T13:11:19;7.50;99.90
9371;DHT22;4725;48.384;8.984;2024-02-28T13:13:46;7.70;99.90
9371;DHT22;4725;48.384;8.984;2024-02-28T13:18:42;7.50;99.90
9371;DHT22;4725;48.384;8.984;2024-02-28T13:23:36;7.60;99.90
9371;DHT22;4725;48.384;8.984;2024-02-28T13:26:04;7.70;99.90
9371;DHT22;4725;48.384;8.984;2024-02-28T13:30:58;7.60;99.90
9371;DHT22;4725;48.384;8.984;2024-02-28T13:33:25;7.30;99.90
9371;DHT22;4725;48.384;8.984;2024-02-28T13:35:54;7.50;99.90
9371;DHT22;4725;48.384;8.984;2024-02-28T13:40:48;7.40;99.90
9371;DHT22;4725;48.384;8.984;2024-02-28T13:43:16;7.30;99.90
9371;DHT22;4725;48.384;8.984;2024-02-28T13:45:46;7.30;99.90
9371;DHT22;4725;48.384;8.984;2024-02-28T13:48:16;7.40;99.90
9371;DHT22;4725;48.384;8.984;2024-02-28T13:50:44;7.50;99.90
9371;DHT22;4725;48.384;8.984;2024-02-28T13:53:13;7.50;99.90
9371;DHT22;4725;48.384;8.984;2024-02-28T13:55:40;7.40;99.90
9371;DHT22;4725;48.384;8.984;2024-02-28T13:58:08;7.40;99.90
9371;DHT22;4725;48.384;8.984;2024-02-28T14:00:36;7.40;99.90
9371;DHT22;4725;48.384;8.984;2024-02-28T14:03:04;7.40;99.90
9371;DHT22;4725;48.384;8.984;2024-02-28T14:05:31;7.40;99.90
9371;DHT22;4725;48.384;8.984;2024-02-28T14:10:30;7.50;99.90
9371;DHT22;4725;48.384;8.984;2024-02-28T14:12:58;7.50;99.90
9371;DHT22;4725;48.384;8.984;2024-02-28T14:15:25;7.20;99.90
9371;DHT22;4725;48.384;8.984;2024-02-28T14:17:52;7.10;99.90
9371;DHT22;4725;48.384;8.984;2024-02-28T14:20:19;7.20;99.90
9371;DHT22;4725;48.384;8.984;2024-02-28T14:22:46;7.20;99.90
9371;DHT22;4725;48.384;8.984;2024-02-28T14:27:43;7.10;99.90
9371;DHT22;4725;48.384;8.984;2024-02-28T14:30:11;7.20;99.90
9371;DHT22;4725;48.384;8.984;2024-02-28T14:32:40;7.30;99.90
9371;DHT22;4725;48.384;8.984;2024-02-28T14:35:08;7.20;99.90
9371;DHT22;4725;48.384;8.984;2024-02-28T14:37:36;7.30;99.90
9371;DHT22;4725;48.384;8.984;2024-02-28T14:40:04;7.30;99.90
9371;DHT22;4725;48.384;8.984;2024-02-28T14:42:32;7.30;99.90
9371;DHT22;4725;48.384;8.984;2024-02-28T14:45:00;7.30;99.90
9371;DHT22;4725;48.384;8.984;2024-02-28T14:47:27;7.20;99.90
9371;DHT22;4725;48.384;8.984;2024-02-28T14:49:54;7.20;99.90
9371;DHT22;4725;48.384;8.984;2024-02-28T14:52:21;7.10;99.90
9371;DHT22;4725;48.384;8.984;2024-02-28T14:54:48;7.00;99.90
9371;DHT22;4725;48.384;8.984;2024-02-28T14:57:15;7.00;99.90
9371;DHT22;4725;48.384;8.984;2024-02-28T14:59:42;7.00;99.90
9371;DHT22;4725;48.384;8.984;2024-02-28T15:02:11;6.90;99.90
9371;DHT22;4725;48.384;8.984;2024-02-28T15:04:38;6.80;99.90
9371;DHT22;4725;48.384;8.984;2024-02-28T15:07:05;6.80;99.90
9371;DHT22;4725;48.384;8.984;2024-02-28T15:09:32;7.30;99.90
9371;DHT22;4725;48.384;8.984;2024-02-28T15:11:59;6.70;99.90
9371;DHT22;4725;48.384;8.984;2024-02-28T15:14:26;6.60;99.90
9371;DHT22;4725;48.384;8.984;2024-02-28T15:16:53;6.70;99.90
9371;DHT22;4725;48.384;8.984;2024-02-28T15:19:21;6.70;99.90
9371;DHT22;4725;48.384;8.984;2024-02-28T15:21:48;6.70;99.90
9371;DHT22;4725;48.384;8.984;2024-02-28T15:24:15;6.70;99.90
9371;DHT22;4725;48.384;8.984;2024-02-28T15:26:42;6.60;99.90
9371;DHT22;4725;48.384;8.984;2024-02-28T15:29:09;6.60;99.90
9371;DHT22;4725;48.384;8.984;2024-02-28T15:31:36;6.60;99.90
9371;DHT22;4725;48.384;8.984;2024-02-28T15:34:04;6.60;99.90
9371;DHT22;4725;48.384;8.984;2024-02-28T15:36:32;6.50;99.90
9371;DHT22;4725;48.384;8.984;2024-02-28T15:38:59;6.50;99.90
9371;DHT22;4725;48.384;8.984;2024-02-28T15:41:26;6.50;99.90
9371;DHT22;4725;48.384;8.984;2024-02-28T15:43:52;6.50;99.90
9371;DHT22;4725;48.384;8.984;2024-02-28T15:46:19;6.40;99.90
9371;DHT22;4725;48.384;8.984;2024-02-28T15:48:47;6.40;99.90
9371;DHT22;4725;48.384;8.984;2024-02-28T15:51:14;6.40;99.90
9371;DHT22;4725;48.384;8.984;2024-02-28T15:53:43;6.40;99.90
9371;DHT22;4725;48.384;8.984;2024-02-28T15:56:10;6.30;99.90
9371;DHT22;4725;48.384;8.984;2024-02-28T15:58:37;6.30;99.90
9371;DHT22;4725;48.384;8.984;2024-02-28T16:01:05;6.30;99.90
9371;DHT22;4725;48.384;8.984;2024-02-28T16:03:32;6.30;99.90
9371;DHT22;4725;48.384;8.984;2024-02-28T16:05:58;6.30;99.90
9371;DHT22;4725;48.384;8.984;2024-02-28T16:08:25;6.20;99.90
9371;DHT22;4725;48.384;8.984;2024-02-28T16:13:21;6.30;99.90
9371;DHT22;4725;48.384;8.984;2024-02-28T16:15:48;6.20;99.90
9371;DHT22;4725;48.384;8.984;2024-02-28T16:18:15;6.20;99.90
9371;DHT22;4725;48.384;8.984;2024-02-28T16:20:41;6.20;99.90
9371;DHT22;4725;48.384;8.984;2024-02-28T16:23:08;6.10;99.90
9371;DHT22;4725;48.384;8.984;2024-02-28T16:25:36;6.00;99.90
9371;DHT22;4725;48.384;8.984;2024-02-28T16:28:05;5.90;99.90
9371;DHT22;4725;48.384;8.984;2024-02-28T16:30:32;5.90;99.90
9371;DHT22;4725;48.384;8.984;2024-02-28T16:32:59;5.90;99.90
9371;DHT22;4725;48.384;8.984;2024-02-28T16:35:26;5.90;99.90
9371;DHT22;4725;48.384;8.984;2024-02-28T16:37:53;5.90;99.90
9371;DHT22;4725;48.384;8.984;2024-02-28T16:40:20;5.90;99.90
9371;DHT22;4725;48.384;8.984;2024-02-28T16:45:15;5.80;99.90
9371;DHT22;4725;48.384;8.984;2024-02-28T16:47:42;5.80;99.90
9371;DHT22;4725;48.384;8.984;2024-02-28T16:50:09;5.70;99.90
9371;DHT22;4725;48.384;8.984;2024-02-28T16:52:36;5.70;99.90
9371;DHT22;4725;48.384;8.984;2024-02-28T16:55:04;5.70;99.90
9371;DHT22;4725;48.384;8.984;2024-02-28T16:57:31;5.60;99.90
9371;DHT22;4725;48.384;8.984;2024-02-28T16:59:58;5.50;99.90
9371;DHT22;4725;48.384;8.984;2024-02-28T17:02:26;5.50;99.90
9371;DHT22;4725;48.384;8.984;2024-02-28T17:04:53;5.50;99.90
9371;DHT22;4725;48.384;8.984;2024-02-28T17:07:20;5.30;99.90
9371;DHT22;4725;48.384;8.984;2024-02-28T17:09:47;5.20;99.90
9371;DHT22;4725;48.384;8.984;2024-02-28T17:12:14;5.20;99.90
9371;DHT22;4725;48.384;8.984;2024-02-28T17:14:41;5.20;99.90
9371;DHT22;4725;48.384;8.984;2024-02-28T17:17:08;5.20;99.90
9371;DHT22;4725;48.384;8.984;2024-02-28T17:19:38;5.10;99.90
9371;DHT22;4725;48.384;8.984;2024-02-28T17:22:05;4.90;99.90
9371;DHT22;4725;48.384;8.984;2024-02-28T17:24:32;4.80;99.90
9371;DHT22;4725;48.384;8.984;2024-02-28T17:27:00;4.80;99.90
9371;DHT22;4725;48.384;8.984;2024-02-28T17:31:54;4.70;99.90
9371;DHT22;4725;48.384;8.984;2024-02-28T17:34:21;4.60;99.90
9371;DHT22;4725;48.384;8.984;2024-02-28T17:36:49;4.50;99.90
9371;DHT22;4725;48.384;8.984;2024-02-28T17:39:16;4.50;99.90
9371;DHT22;4725;48.384;8.984;2024-02-28T17:41:45;4.40;99.90
9371;DHT22;4725;48.384;8.984;2024-02-28T17:44:14;4.40;99.90
9371;DHT22;4725;48.384;8.984;2024-02-28T17:49:08;4.30;99.90
9371;DHT22;4725;48.384;8.984;2024-02-28T17:51:35;4.20;99.90
9371;DHT22;4725;48.384;8.984;2024-02-28T17:56:32;4.10;99.90
9371;DHT22;4725;48.384;8.984;2024-02-28T17:58:59;4.00;99.90
9371;DHT22;4725;48.384;8.984;2024-02-28T18:01:26;3.90;99.90
9371;DHT22;4725;48.384;8.984;2024-02-28T18:03:53;3.80;99.90
9371;DHT22;4725;48.384;8.984;2024-02-28T18:13:42;3.40;99.90
9371;DHT22;4725;48.384;8.984;2024-02-28T18:16:09;3.30;99.90
9371;DHT22;4725;48.384;8.984;2024-02-28T18:21:04;3.10;99.90
9371;DHT22;4725;48.384;8.984;2024-02-28T18:28:26;2.80;99.90
9371;DHT22;4725;48.384;8.984;2024-02-28T18:30:53;2.60;99.90
9371;DHT22;4725;48.384;8.984;2024-02-28T18:38:14;2.40;99.90
9371;DHT22;4725;48.384;8.984;2024-02-28T18:43:09;2.40;99.90
9371;DHT22;4725;48.384;8.984;2024-02-28T18:45:42;2.40;99.90
9371;DHT22;4725;48.384;8.984;2024-02-28T18:53:04;2.10;99.90
9371;DHT22;4725;48.384;8.984;2024-02-28T18:55:31;2.10;99.90
9371;DHT22;4725;48.384;8.984;2024-02-28T19:02:54;2.00;99.90
9371;DHT22;4725;48.384;8.984;2024-02-28T19:05:22;2.00;99.90
9371;DHT22;4725;48.384;8.984;2024-02-28T19:07:49;1.90;99.90
9371;DHT22;4725;48.384;8.984;2024-02-28T19:10:17;2.10;99.90
9371;DHT22;4725;48.384;8.984;2024-02-28T19:12:44;1.90;99.90
9371;DHT22;4725;48.384;8.984;2024-02-28T19:17:40;1.80;99.90
9371;DHT22;4725;48.384;8.984;2024-02-28T19:20:09;1.70;99.90
9371;DHT22;4725;48.384;8.984;2024-02-28T19:25:04;1.80;99.90
9371;DHT22;4725;48.384;8.984;2024-02-28T19:29:58;2.10;99.90
9371;DHT22;4725;48.384;8.984;2024-02-28T19:34:52;2.40;99.90
9371;DHT22;4725;48.384;8.984;2024-02-28T19:37:20;2.40;99.90
9371;DHT22;4725;48.384;8.984;2024-02-28T19:44:48;2.40;99.90
9371;DHT22;4725;48.384;8.984;2024-02-28T19:47:15;2.30;99.90
9371;DHT22;4725;48.384;8.984;2024-02-28T19:52:09;2.10;99.90
9371;DHT22;4725;48.384;8.984;2024-02-28T19:54:37;2.00;99.90
9371;DHT22;4725;48.384;8.984;2024-02-28T19:57:04;1.90;99.90
9371;DHT22;4725;48.384;8.984;2024-02-28T19:59:31;1.70;99.90
9371;DHT22;4725;48.384;8.984;2024-02-28T20:11:49;1.40;99.90
9371;DHT22;4725;48.384;8.984;2024-02-28T20:16:43;1.50;99.90
9371;DHT22;4725;48.384;8.984;2024-02-28T20:21:38;1.50;99.90
9371;DHT22;4725;48.384;8.984;2024-02-28T20:24:05;1.50;99.90
9371;DHT22;4725;48.384;8.984;2024-02-28T20:29:01;1.60;99.90
9371;DHT22;4725;48.384;8.984;2024-02-28T20:38:53;1.60;99.90
9371;DHT22;4725;48.384;8.984;2024-02-28T20:43:50;1.40;99.90
9371;DHT22;4725;48.384;8.984;2024-02-28T20:46:19;1.40;99.90
9371;DHT22;4725;48.384;8.984;2024-02-28T20:51:14;1.20;99.90
9371;DHT22;4725;48.384;8.984;2024-02-28T20:56:10;0.90;99.90
9371;DHT22;4725;48.384;8.984;2024-02-28T20:58:37;0.70;99.90
9371;DHT22;4725;48.384;8.984;2024-02-28T21:03:34;0.70;99.90
9371;DHT22;4725;48.384;8.984;2024-02-28T21:13:22;0.80;99.90
9371;DHT22;4725;48.384;8.984;2024-02-28T21:20:44;0.90;99.90
9371;DHT22;4725;48.384;8.984;2024-02-28T21:25:38;1.10;99.90
9371;DHT22;4725;48.384;8.984;2024-02-28T21:35:27;1.30;99.90
9371;DHT22;4725;48.384;8.984;2024-02-28T21:37:55;1.10;99.90
9371;DHT22;4725;48.384;8.984;2024-02-28T21:55:11;0.70;99.90
9371;DHT22;4725;48.384;8.984;2024-02-28T22:00:06;0.70;99.90
9371;DHT22;4725;48.384;8.984;2024-02-28T22:07:28;0.40;99.90
9371;DHT22;4725;48.384;8.984;2024-02-28T22:09:55;0.40;99.90
9371;DHT22;4725;48.384;8.984;2024-02-28T22:12:23;0.40;99.90
9371;DHT22;4725;48.384;8.984;2024-02-28T22:17:17;0.50;99.90
9371;DHT22;4725;48.384;8.984;2024-02-28T22:24:40;0.30;99.90
9371;DHT22;4725;48.384;8.984;2024-02-28T22:29:36;0.10;99.90
9371;DHT22;4725;48.384;8.984;2024-02-28T22:32:03;0.00;99.90
9371;DHT22;4725;48.384;8.984;2024-02-28T22:34:29;-0.10;99.90
9371;DHT22;4725;48.384;8.984;2024-02-28T22:36:56;-0.30;99.90
9371;DHT22;4725;48.384;8.984;2024-02-28T22:46:46;-0.30;99.90
9371;DHT22;4725;48.384;8.984;2024-02-28T22:49:13;-0.20;99.90
9371;DHT22;4725;48.384;8.984;2024-02-28T22:59:07;-0.30;99.90
9371;DHT22;4725;48.384;8.984;2024-02-28T23:04:02;-0.40;99.90
9371;DHT22;4725;48.384;8.984;2024-02-28T23:13:51;-0.40;99.90